sensor_id;sensor_type;location;lat;lon;timestamp;pressure;altitude;pressure_sealevel;temperature;humidity
17936;BME280;9093;52.062;4.508;2022-12-18T00:01:38;103106.88;;;-0.95;77.79
17936;BME280;9093;52.062;4.508;2022-12-18T00:04:21;103117.47;;;-0.92;77.97
17936;BME280;9093;52.062;4.508;2022-12-18T00:07:02;103111.38;;;-0.91;77.51
17936;BME280;9093;52.062;4.508;2022-12-18T00:09:42;103107.06;;;-0.89;77.62
17936;BME280;9093;52.062;4.508;2022-12-18T00:12:23;103107.16;;;-0.86;77.82
17936;BME280;9093;52.062;4.508;2022-12-18T00:15:04;103110.72;;;-0.84;77.84
17936;BME280;9093;52.062;4.508;2022-12-18T00:17:44;103102.00;;;-0.83;77.77
17936;BME280;9093;52.062;4.508;2022-12-18T00:20:24;103101.13;;;-0.82;77.77
17936;BME280;9093;52.062;4.508;2022-12-18T00:23:06;103107.25;;;-0.83;77.78
17936;BME280;9093;52.062;4.508;2022-12-18T00:25:47;103106.38;;;-0.83;77.81
17936;BME280;9093;52.062;4.508;2022-12-18T00:28:27;103108.22;;;-0.79;77.90
17936;BME280;9093;52.062;4.508;2022-12-18T00:31:11;103101.19;;;-0.80;77.51
17936;BME280;9093;52.062;4.508;2022-12-18T00:33:54;103093.25;;;-0.82;77.50
17936;BME280;9093;52.062;4.508;2022-12-18T00:36:34;103092.38;;;-0.82;77.61
17936;BME280;9093;52.062;4.508;2022-12-18T00:39:15;103095.81;;;-0.85;77.56
17936;BME280;9093;52.062;4.508;2022-12-18T00:41:55;103091.41;;;-0.86;77.94
17936;BME280;9093;52.062;4.508;2022-12-18T00:44:56;103098.34;;;-0.88;77.78
17936;BME280;9093;52.062;4.508;2022-12-18T00:47:36;103094.88;;;-0.87;77.79
17936;BME280;9093;52.062;4.508;2022-12-18T00:50:16;103105.38;;;-0.87;77.94
17936;BME280;9093;52.062;4.508;2022-12-18T00:52:57;103108.00;;;-0.87;77.91
17936;BME280;9093;52.062;4.508;2022-12-18T00:55:39;103115.84;;;-0.87;77.73
17936;BME280;9093;52.062;4.508;2022-12-18T00:58:19;103110.59;;;-0.87;77.70
17936;BME280;9093;52.062;4.508;2022-12-18T01:00:59;103107.19;;;-0.84;77.91
17936;BME280;9093;52.062;4.508;2022-12-18T01:03:40;103115.06;;;-0.84;77.91
17936;BME280;9093;52.062;4.508;2022-12-18T01:06:20;103112.31;;;-0.89;77.82
17936;BME280;9093;52.062;4.508;2022-12-18T01:09:00;103111.38;;;-0.91;78.02
17936;BME280;9093;52.062;4.508;2022-12-18T01:11:41;103122.75;;;-0.90;78.08
17936;BME280;9093;52.062;4.508;2022-12-18T01:14:21;103118.41;;;-0.90;77.88
17936;BME280;9093;52.062;4.508;2022-12-18T01:17:01;103114.94;;;-0.89;78.09
17936;BME280;9093;52.062;4.508;2022-12-18T01:19:52;103124.50;;;-0.91;77.99
17936;BME280;9093;52.062;4.508;2022-12-18T01:22:35;103119.31;;;-0.88;77.75
17936;BME280;9093;52.062;4.508;2022-12-18T01:25:16;103127.25;;;-0.86;77.85
17936;BME280;9093;52.062;4.508;2022-12-18T01:27:56;103124.56;;;-0.88;77.66
17936;BME280;9093;52.062;4.508;2022-12-18T01:30:37;103130.69;;;-0.87;77.80
17936;BME280;9093;52.062;4.508;2022-12-18T01:33:17;103128.06;;;-0.89;78.09
17936;BME280;9093;52.062;4.508;2022-12-18T01:35:57;103131.47;;;-0.91;77.78
17936;BME280;9093;52.062;4.508;2022-12-18T01:38:37;103121.88;;;-0.91;78.24
17936;BME280;9093;52.062;4.508;2022-12-18T01:41:20;103128.78;;;-0.93;78.11
17936;BME280;9093;52.062;4.508;2022-12-18T01:47:36;103132.97;;;-0.99;77.94
17936;BME280;9093;52.062;4.508;2022-12-18T01:53:15;103145.00;;;-1.06;78.16
17936;BME280;9093;52.062;4.508;2022-12-18T01:55:57;103137.97;;;-1.07;78.17
17936;BME280;9093;52.062;4.508;2022-12-18T02:01:32;103154.56;;;-1.08;78.46
17936;BME280;9093;52.062;4.508;2022-12-18T02:10:27;103145.94;;;-1.04;78.08
17936;BME280;9093;52.062;4.508;2022-12-18T02:19:36;103149.13;;;-1.14;78.09
17936;BME280;9093;52.062;4.508;2022-12-18T02:22:29;103151.78;;;-1.12;78.20
17936;BME280;9093;52.062;4.508;2022-12-18T02:28:09;103147.44;;;-1.12;78.26
17936;BME280;9093;52.062;4.508;2022-12-18T02:30:54;103151.78;;;-1.12;78.20
17936;BME280;9093;52.062;4.508;2022-12-18T02:33:36;103150.06;;;-1.12;78.51
17936;BME280;9093;52.062;4.508;2022-12-18T02:36:18;103146.59;;;-1.11;78.17
17936;BME280;9093;52.062;4.508;2022-12-18T02:39:01;103136.09;;;-1.11;77.98
17936;BME280;9093;52.062;4.508;2022-12-18T02:41:42;103139.56;;;-1.12;78.46
17936;BME280;9093;52.062;4.508;2022-12-18T02:44:25;103123.84;;;-1.12;77.94
17936;BME280;9093;52.062;4.508;2022-12-18T02:47:05;103121.13;;;-1.15;78.31
17936;BME280;9093;52.062;4.508;2022-12-18T02:53:01;103112.00;;;-1.28;78.20
17936;BME280;9093;52.062;4.508;2022-12-18T02:56:19;103105.72;;;-1.33;78.30
17936;BME280;9093;52.062;4.508;2022-12-18T02:59:07;103106.59;;;-1.32;78.10
17936;BME280;9093;52.062;4.508;2022-12-18T03:02:02;103103.06;;;-1.34;78.55
17936;BME280;9093;52.062;4.508;2022-12-18T03:05:10;103100.34;;;-1.37;78.47
17936;BME280;9093;52.062;4.508;2022-12-18T03:08:08;103099.41;;;-1.39;78.12
17936;BME280;9093;52.062;4.508;2022-12-18T03:10:58;103092.47;;;-1.37;78.30
17936;BME280;9093;52.062;4.508;2022-12-18T03:16:23;103082.81;;;-1.38;78.16
17936;BME280;9093;52.062;4.508;2022-12-18T03:19:08;103087.16;;;-1.40;78.35
17936;BME280;9093;52.062;4.508;2022-12-18T03:21:53;103086.22;;;-1.42;78.34
17936;BME280;9093;52.062;4.508;2022-12-18T03:24:35;103082.63;;;-1.44;77.99
17936;BME280;9093;52.062;4.508;2022-12-18T03:27:20;103089.59;;;-1.46;78.21
17936;BME280;9093;52.062;4.508;2022-12-18T03:30:08;103093.03;;;-1.47;78.43
17936;BME280;9093;52.062;4.508;2022-12-18T03:32:52;103083.41;;;-1.48;78.08
17936;BME280;9093;52.062;4.508;2022-12-18T03:35:38;103079.88;;;-1.49;78.16
17936;BME280;9093;52.062;4.508;2022-12-18T03:38:19;103079.88;;;-1.49;78.34
17936;BME280;9093;52.062;4.508;2022-12-18T03:43:58;103086.72;;;-1.54;78.25
17936;BME280;9093;52.062;4.508;2022-12-18T03:47:05;103078.72;;;-1.58;78.11
17936;BME280;9093;52.062;4.508;2022-12-18T03:50:02;103076.84;;;-1.63;77.98
17936;BME280;9093;52.062;4.508;2022-12-18T03:55:34;103067.00;;;-1.70;78.18
17936;BME280;9093;52.062;4.508;2022-12-18T03:58:18;103066.16;;;-1.69;78.27
17936;BME280;9093;52.062;4.508;2022-12-18T04:01:02;103074.00;;;-1.69;78.09
17936;BME280;9093;52.062;4.508;2022-12-18T04:03:44;103075.75;;;-1.69;78.17
17936;BME280;9093;52.062;4.508;2022-12-18T04:06:26;103079.19;;;-1.70;77.91
17936;BME280;9093;52.062;4.508;2022-12-18T04:09:07;103080.00;;;-1.73;77.91
17936;BME280;9093;52.062;4.508;2022-12-18T04:11:48;103069.41;;;-1.76;78.06
17936;BME280;9093;52.062;4.508;2022-12-18T04:14:28;103074.72;;;-1.74;78.11
17936;BME280;9093;52.062;4.508;2022-12-18T04:17:08;103078.09;;;-1.78;78.02
17936;BME280;9093;52.062;4.508;2022-12-18T04:19:49;103081.47;;;-1.81;78.18
17936;BME280;9093;52.062;4.508;2022-12-18T04:22:29;103088.38;;;-1.83;77.81
17936;BME280;9093;52.062;4.508;2022-12-18T04:25:09;103084.84;;;-1.85;77.71
17936;BME280;9093;52.062;4.508;2022-12-18T04:27:50;103089.97;;;-1.88;78.06
17936;BME280;9093;52.062;4.508;2022-12-18T04:30:30;103089.00;;;-1.91;78.02
17936;BME280;9093;52.062;4.508;2022-12-18T04:33:12;103084.66;;;-1.91;77.94
17936;BME280;9093;52.062;4.508;2022-12-18T04:35:52;103090.66;;;-1.93;78.01
17936;BME280;9093;52.062;4.508;2022-12-18T04:38:33;103086.19;;;-1.96;77.53
17936;BME280;9093;52.062;4.508;2022-12-18T04:41:13;103089.69;;;-1.97;77.85
17936;BME280;9093;52.062;4.508;2022-12-18T04:43:53;103091.28;;;-2.00;77.63
17936;BME280;9093;52.062;4.508;2022-12-18T04:46:33;103101.78;;;-2.00;77.54
17936;BME280;9093;52.062;4.508;2022-12-18T04:49:14;103093.78;;;-2.05;77.54
17936;BME280;9093;52.062;4.508;2022-12-18T04:51:56;103091.03;;;-2.08;77.60
17936;BME280;9093;52.062;4.508;2022-12-18T04:54:36;103098.84;;;-2.10;77.65
17936;BME280;9093;52.062;4.508;2022-12-18T04:57:22;103083.84;;;-2.15;77.23
17936;BME280;9093;52.062;4.508;2022-12-18T05:00:03;103087.28;;;-2.16;77.58
17936;BME280;9093;52.062;4.508;2022-12-18T05:02:44;103085.38;;;-2.20;77.36
17936;BME280;9093;52.062;4.508;2022-12-18T05:05:24;103087.97;;;-2.22;77.36
17936;BME280;9093;52.062;4.508;2022-12-18T05:08:05;103086.19;;;-2.23;77.55
17936;BME280;9093;52.062;4.508;2022-12-18T05:10:45;103086.97;;;-2.25;77.18
17936;BME280;9093;52.062;4.508;2022-12-18T05:13:26;103090.41;;;-2.26;77.09
17936;BME280;9093;52.062;4.508;2022-12-18T05:16:07;103088.63;;;-2.27;77.36
17936;BME280;9093;52.062;4.508;2022-12-18T05:18:47;103095.56;;;-2.29;77.01
17936;BME280;9093;52.062;4.508;2022-12-18T05:21:28;103093.78;;;-2.30;77.25
17936;BME280;9093;52.062;4.508;2022-12-18T05:24:08;103088.31;;;-2.36;77.28
17936;BME280;9093;52.062;4.508;2022-12-18T05:26:48;103086.53;;;-2.37;77.21
17936;BME280;9093;52.062;4.508;2022-12-18T05:29:29;103084.66;;;-2.41;77.36
17936;BME280;9093;52.062;4.508;2022-12-18T05:32:09;103081.94;;;-2.45;77.11
17936;BME280;9093;52.062;4.508;2022-12-18T05:34:49;103082.88;;;-2.42;77.22
17936;BME280;9093;52.062;4.508;2022-12-18T05:37:29;103076.75;;;-2.43;77.18
17936;BME280;9093;52.062;4.508;2022-12-18T05:40:10;103072.28;;;-2.46;76.74
17936;BME280;9093;52.062;4.508;2022-12-18T05:42:51;103068.75;;;-2.48;77.02
17936;BME280;9093;52.062;4.508;2022-12-18T05:45:31;103066.06;;;-2.49;77.04
17936;BME280;9093;52.062;4.508;2022-12-18T05:48:15;103058.19;;;-2.51;76.98
17936;BME280;9093;52.062;4.508;2022-12-18T05:50:55;103061.63;;;-2.52;76.77
17936;BME280;9093;52.062;4.508;2022-12-18T05:53:36;103059.84;;;-2.53;76.91
17936;BME280;9093;52.062;4.508;2022-12-18T05:56:19;103061.59;;;-2.53;76.90
17936;BME280;9093;52.062;4.508;2022-12-18T05:59:00;103065.94;;;-2.54;76.68
17936;BME280;9093;52.062;4.508;2022-12-18T06:01:40;103065.94;;;-2.54;76.52
17936;BME280;9093;52.062;4.508;2022-12-18T06:04:20;103055.41;;;-2.55;76.55
17936;BME280;9093;52.062;4.508;2022-12-18T06:07:01;103051.06;;;-2.55;76.48
17936;BME280;9093;52.062;4.508;2022-12-18T06:09:41;103059.75;;;-2.56;76.70
17936;BME280;9093;52.062;4.508;2022-12-18T06:12:21;103050.13;;;-2.57;76.33
17936;BME280;9093;52.062;4.508;2022-12-18T06:15:02;103053.63;;;-2.56;76.56
17936;BME280;9093;52.062;4.508;2022-12-18T06:17:42;103042.19;;;-2.60;76.59
17936;BME280;9093;52.062;4.508;2022-12-18T06:20:22;103036.00;;;-2.62;76.08
17936;BME280;9093;52.062;4.508;2022-12-18T06:23:03;103031.59;;;-2.63;76.55
17936;BME280;9093;52.062;4.508;2022-12-18T06:25:43;103030.69;;;-2.63;76.42
17936;BME280;9093;52.062;4.508;2022-12-18T06:28:23;103037.66;;;-2.64;76.41
17936;BME280;9093;52.062;4.508;2022-12-18T06:31:04;103033.25;;;-2.65;76.25
17936;BME280;9093;52.062;4.508;2022-12-18T06:33:45;103031.50;;;-2.66;76.23
17936;BME280;9093;52.062;4.508;2022-12-18T06:36:25;103022.59;;;-2.71;76.26
17936;BME280;9093;52.062;4.508;2022-12-18T06:39:05;103016.47;;;-2.71;76.34
17936;BME280;9093;52.062;4.508;2022-12-18T06:41:45;103011.22;;;-2.71;76.31
17936;BME280;9093;52.062;4.508;2022-12-18T06:44:26;103022.59;;;-2.71;76.44
17936;BME280;9093;52.062;4.508;2022-12-18T06:47:06;103016.47;;;-2.71;76.33
17936;BME280;9093;52.062;4.508;2022-12-18T06:49:46;103001.63;;;-2.72;76.13
17936;BME280;9093;52.062;4.508;2022-12-18T06:52:27;103008.59;;;-2.73;76.11
17936;BME280;9093;52.062;4.508;2022-12-18T06:55:07;103000.69;;;-2.74;75.95
17936;BME280;9093;52.062;4.508;2022-12-18T06:57:49;102991.88;;;-2.76;75.92
17936;BME280;9093;52.062;4.508;2022-12-18T07:00:29;102983.97;;;-2.78;76.18
17936;BME280;9093;52.062;4.508;2022-12-18T07:03:09;102988.28;;;-2.80;76.07
17936;BME280;9093;52.062;4.508;2022-12-18T07:05:50;102991.72;;;-2.81;76.17
17936;BME280;9093;52.062;4.508;2022-12-18T07:08:31;102992.56;;;-2.82;76.12
17936;BME280;9093;52.062;4.508;2022-12-18T07:11:12;102978.44;;;-2.87;75.93
17936;BME280;9093;52.062;4.508;2022-12-18T07:13:52;102981.00;;;-2.89;76.14
17936;BME280;9093;52.062;4.508;2022-12-18T07:16:33;102974.06;;;-2.88;76.06
17936;BME280;9093;52.062;4.508;2022-12-18T07:19:13;102955.75;;;-2.88;76.05
17936;BME280;9093;52.062;4.508;2022-12-18T07:21:54;102949.53;;;-2.92;76.20
17936;BME280;9093;52.062;4.508;2022-12-18T07:24:34;102938.19;;;-2.92;75.95
17936;BME280;9093;52.062;4.508;2022-12-18T07:27:14;102925.91;;;-2.95;76.15
17936;BME280;9093;52.062;4.508;2022-12-18T07:29:55;102923.28;;;-2.95;75.93
17936;BME280;9093;52.062;4.508;2022-12-18T07:32:35;102925.06;;;-2.94;76.24
17936;BME280;9093;52.062;4.508;2022-12-18T07:35:22;102914.63;;;-2.94;76.06
17936;BME280;9093;52.062;4.508;2022-12-18T07:38:02;102920.72;;;-2.93;76.15
17936;BME280;9093;52.062;4.508;2022-12-18T07:40:42;102915.50;;;-2.93;75.88
17936;BME280;9093;52.062;4.508;2022-12-18T07:43:22;102921.56;;;-2.94;76.15
17936;BME280;9093;52.062;4.508;2022-12-18T07:46:06;102931.94;;;-2.97;76.26
17936;BME280;9093;52.062;4.508;2022-12-18T07:48:47;102932.84;;;-2.95;76.07
17936;BME280;9093;52.062;4.508;2022-12-18T07:51:27;102929.41;;;-2.94;76.31
17936;BME280;9093;52.062;4.508;2022-12-18T07:54:08;102925.91;;;-2.95;76.08
17936;BME280;9093;52.062;4.508;2022-12-18T07:56:49;102919.72;;;-2.97;75.98
17936;BME280;9093;52.062;4.508;2022-12-18T07:59:29;102928.44;;;-2.96;76.08
17936;BME280;9093;52.062;4.508;2022-12-18T08:02:09;102925.84;;;-2.96;76.15
17936;BME280;9093;52.062;4.508;2022-12-18T08:04:50;102931.97;;;-2.96;76.08
17936;BME280;9093;52.062;4.508;2022-12-18T08:07:30;102927.53;;;-2.98;76.27
17936;BME280;9093;52.062;4.508;2022-12-18T08:10:10;102924.03;;;-2.99;75.95
17936;BME280;9093;52.062;4.508;2022-12-18T08:12:53;102918.75;;;-3.00;75.82
17936;BME280;9093;52.062;4.508;2022-12-18T08:15:34;102924.84;;;-3.00;76.05
17936;BME280;9093;52.062;4.508;2022-12-18T08:18:14;102920.59;;;-2.98;75.84
17936;BME280;9093;52.062;4.508;2022-12-18T08:20:55;102911.84;;;-2.98;75.84
17936;BME280;9093;52.062;4.508;2022-12-18T08:23:35;102897.94;;;-2.97;76.23
17936;BME280;9093;52.062;4.508;2022-12-18T08:26:16;102905.88;;;-2.94;75.94
17936;BME280;9093;52.062;4.508;2022-12-18T08:28:58;102923.28;;;-2.95;75.94
17936;BME280;9093;52.062;4.508;2022-12-18T08:31:39;102907.44;;;-2.99;75.89
17936;BME280;9093;52.062;4.508;2022-12-18T08:34:19;102911.94;;;-2.95;75.84
17936;BME280;9093;52.062;4.508;2022-12-18T08:36:59;102917.28;;;-2.92;75.96
17936;BME280;9093;52.062;4.508;2022-12-18T08:39:40;102931.28;;;-2.90;76.06
17936;BME280;9093;52.062;4.508;2022-12-18T08:42:20;102935.66;;;-2.89;75.96
17936;BME280;9093;52.062;4.508;2022-12-18T08:45:19;102959.38;;;-2.85;76.13
17936;BME280;9093;52.062;4.508;2022-12-18T08:47:59;102958.63;;;-2.80;76.14
17936;BME280;9093;52.062;4.508;2022-12-18T08:50:40;102960.44;;;-2.78;75.83
17936;BME280;9093;52.062;4.508;2022-12-18T08:53:20;102947.56;;;-2.73;75.92
17936;BME280;9093;52.062;4.508;2022-12-18T08:56:00;102945.91;;;-2.70;75.70
17936;BME280;9093;52.062;4.508;2022-12-18T08:58:41;102960.03;;;-2.65;75.66
17936;BME280;9093;52.062;4.508;2022-12-18T09:01:22;102955.00;;;-2.59;75.93
17936;BME280;9093;52.062;4.508;2022-12-18T09:04:02;102953.28;;;-2.58;75.87
17936;BME280;9093;52.062;4.508;2022-12-18T09:06:43;102951.69;;;-2.55;75.88
17936;BME280;9093;52.062;4.508;2022-12-18T09:09:23;102950.09;;;-2.50;75.91
17936;BME280;9093;52.062;4.508;2022-12-18T09:12:03;102949.34;;;-2.46;75.87
17936;BME280;9093;52.062;4.508;2022-12-18T09:14:44;102939.94;;;-2.40;75.81
17936;BME280;9093;52.062;4.508;2022-12-18T09:17:24;102923.50;;;-2.36;75.85
17936;BME280;9093;52.062;4.508;2022-12-18T09:20:05;102901.81;;;-2.32;75.58
17936;BME280;9093;52.062;4.508;2022-12-18T09:22:45;102893.13;;;-2.31;75.77
17936;BME280;9093;52.062;4.508;2022-12-18T09:25:26;102896.69;;;-2.29;75.71
17936;BME280;9093;52.062;4.508;2022-12-18T09:28:18;102898.47;;;-2.28;75.43
17936;BME280;9093;52.062;4.508;2022-12-18T09:31:04;102902.00;;;-2.26;75.57
17936;BME280;9093;52.062;4.508;2022-12-18T09:33:44;102908.31;;;-2.20;75.60
17936;BME280;9093;52.062;4.508;2022-12-18T09:36:27;102904.16;;;-2.13;75.62
17936;BME280;9093;52.062;4.508;2022-12-18T09:39:08;102901.69;;;-2.09;75.56
17936;BME280;9093;52.062;4.508;2022-12-18T09:41:53;102902.75;;;-2.02;75.66
17936;BME280;9093;52.062;4.508;2022-12-18T09:44:43;102901.19;;;-1.97;75.53
17936;BME280;9093;52.062;4.508;2022-12-18T09:47:34;102913.53;;;-1.93;75.69
17936;BME280;9093;52.062;4.508;2022-12-18T09:50:35;102917.94;;;-1.92;75.58
17936;BME280;9093;52.062;4.508;2022-12-18T09:53:21;102905.91;;;-1.85;75.67
17936;BME280;9093;52.062;4.508;2022-12-18T09:56:04;102901.56;;;-1.85;75.71
17936;BME280;9093;52.062;4.508;2022-12-18T09:58:51;102892.94;;;-1.81;75.75
17936;BME280;9093;52.062;4.508;2022-12-18T10:01:33;102891.34;;;-1.76;75.57
17936;BME280;9093;52.062;4.508;2022-12-18T10:04:14;102886.34;;;-1.68;75.83
17936;BME280;9093;52.062;4.508;2022-12-18T10:07:22;102891.69;;;-1.64;75.62
17936;BME280;9093;52.062;4.508;2022-12-18T10:10:15;102889.22;;;-1.59;75.45
17936;BME280;9093;52.062;4.508;2022-12-18T10:13:34;102886.63;;;-1.57;75.85
17936;BME280;9093;52.062;4.508;2022-12-18T10:16:46;102874.56;;;-1.52;75.79
17936;BME280;9093;52.062;4.508;2022-12-18T10:19:50;102868.50;;;-1.50;75.99
17936;BME280;9093;52.062;4.508;2022-12-18T10:28:31;102862.81;;;-1.35;75.99
17936;BME280;9093;52.062;4.508;2022-12-18T10:31:20;102855.91;;;-1.32;75.65
17936;BME280;9093;52.062;4.508;2022-12-18T10:34:13;102849.03;;;-1.28;75.83
17936;BME280;9093;52.062;4.508;2022-12-18T10:36:53;102856.13;;;-1.24;75.64
17936;BME280;9093;52.062;4.508;2022-12-18T10:39:33;102856.22;;;-1.21;76.02
17936;BME280;9093;52.062;4.508;2022-12-18T10:42:18;102858.06;;;-1.17;75.79
17936;BME280;9093;52.062;4.508;2022-12-18T10:45:15;102844.19;;;-1.13;75.89
17936;BME280;9093;52.062;4.508;2022-12-18T10:47:57;102844.34;;;-1.07;76.11
17936;BME280;9093;52.062;4.508;2022-12-18T10:50:38;102852.34;;;-1.02;75.86
17936;BME280;9093;52.062;4.508;2022-12-18T10:53:24;102848.13;;;-0.96;75.75
17936;BME280;9093;52.062;4.508;2022-12-18T10:56:06;102836.91;;;-0.90;75.80
17936;BME280;9093;52.062;4.508;2022-12-18T10:58:59;102846.56;;;-0.89;75.89
17936;BME280;9093;52.062;4.508;2022-12-18T11:01:50;102839.66;;;-0.86;75.90
17936;BME280;9093;52.062;4.508;2022-12-18T11:04:32;102842.31;;;-0.84;75.88
17936;BME280;9093;52.062;4.508;2022-12-18T11:07:12;102845.03;;;-0.79;75.91
17936;BME280;9093;52.062;4.508;2022-12-18T11:10:02;102828.50;;;-0.75;75.95
17936;BME280;9093;52.062;4.508;2022-12-18T11:12:42;102834.78;;;-0.70;75.96
17936;BME280;9093;52.062;4.508;2022-12-18T11:15:27;102837.50;;;-0.66;76.08
17936;BME280;9093;52.062;4.508;2022-12-18T11:18:19;102834.03;;;-0.65;76.18
17936;BME280;9093;52.062;4.508;2022-12-18T11:21:11;102835.06;;;-0.58;75.98
17936;BME280;9093;52.062;4.508;2022-12-18T11:23:53;102830.84;;;-0.52;75.94
17936;BME280;9093;52.062;4.508;2022-12-18T11:26:34;102814.28;;;-0.49;76.26
17936;BME280;9093;52.062;4.508;2022-12-18T11:29:18;102803.88;;;-0.46;75.89
17936;BME280;9093;52.062;4.508;2022-12-18T11:35:02;102808.38;;;-0.41;76.08
17936;BME280;9093;52.062;4.508;2022-12-18T11:37:47;102802.34;;;-0.35;75.99
17936;BME280;9093;52.062;4.508;2022-12-18T11:40:35;102794.44;;;-0.36;76.33
17936;BME280;9093;52.062;4.508;2022-12-18T11:43:21;102784.03;;;-0.33;76.36
17936;BME280;9093;52.062;4.508;2022-12-18T11:46:19;102765.69;;;-0.32;76.39
17936;BME280;9093;52.062;4.508;2022-12-18T11:49:07;102763.97;;;-0.30;76.35
17936;BME280;9093;52.062;4.508;2022-12-18T11:51:51;102750.06;;;-0.26;76.37
17936;BME280;9093;52.062;4.508;2022-12-18T11:54:34;102744.06;;;-0.20;76.28
17936;BME280;9093;52.062;4.508;2022-12-18T12:00:21;102731.91;;;-0.15;76.39
17936;BME280;9093;52.062;4.508;2022-12-18T12:03:22;102723.09;;;-0.17;76.66
17936;BME280;9093;52.062;4.508;2022-12-18T12:06:21;102721.44;;;-0.14;76.71
17936;BME280;9093;52.062;4.508;2022-12-18T12:09:45;102715.44;;;-0.08;76.55
17936;BME280;9093;52.062;4.508;2022-12-18T12:12:56;102707.53;;;-0.08;76.43
17936;BME280;9093;52.062;4.508;2022-12-18T12:21:39;102718.13;;;-0.04;76.76
17936;BME280;9093;52.062;4.508;2022-12-18T12:30:20;102708.56;;;-0.02;76.68
17936;BME280;9093;52.062;4.508;2022-12-18T12:36:09;102699.88;;;0.03;76.61
17936;BME280;9093;52.062;4.508;2022-12-18T12:38:58;102701.63;;;0.04;76.98
17936;BME280;9093;52.062;4.508;2022-12-18T12:41:42;102698.22;;;0.08;76.78
17936;BME280;9093;52.062;4.508;2022-12-18T12:44:54;102699.97;;;0.09;76.77
17936;BME280;9093;52.062;4.508;2022-12-18T12:47:38;102688.56;;;0.07;76.55
17936;BME280;9093;52.062;4.508;2022-12-18T12:50:21;102678.97;;;0.09;76.74
17936;BME280;9093;52.062;4.508;2022-12-18T12:53:07;102685.06;;;0.08;76.87
17936;BME280;9093;52.062;4.508;2022-12-18T12:55:49;102682.53;;;0.11;77.03
17936;BME280;9093;52.062;4.508;2022-12-18T13:01:57;102667.66;;;0.11;76.81
17936;BME280;9093;52.062;4.508;2022-12-18T13:04:49;102658.91;;;0.14;76.88
17936;BME280;9093;52.062;4.508;2022-12-18T13:13:10;102649.25;;;0.13;76.88
17936;BME280;9093;52.062;4.508;2022-12-18T13:16:06;102637.91;;;0.12;77.17
17936;BME280;9093;52.062;4.508;2022-12-18T13:18:51;102640.59;;;0.17;77.05
17936;BME280;9093;52.062;4.508;2022-12-18T13:21:33;102636.19;;;0.16;76.78
17936;BME280;9093;52.062;4.508;2022-12-18T13:24:24;102632.69;;;0.15;76.82
17936;BME280;9093;52.062;4.508;2022-12-18T13:44:44;102584.59;;;0.18;77.03
17936;BME280;9093;52.062;4.508;2022-12-18T13:47:27;102581.97;;;0.19;76.92
17936;BME280;9093;52.062;4.508;2022-12-18T13:50:22;102577.59;;;0.20;76.83
17936;BME280;9093;52.062;4.508;2022-12-18T13:53:04;102574.19;;;0.24;77.11
17936;BME280;9093;52.062;4.508;2022-12-18T13:55:45;102574.19;;;0.24;76.77
17936;BME280;9093;52.062;4.508;2022-12-18T13:58:25;102571.56;;;0.24;76.83
17936;BME280;9093;52.062;4.508;2022-12-18T14:01:21;102549.63;;;0.22;76.90
17936;BME280;9093;52.062;4.508;2022-12-18T14:04:34;102556.59;;;0.20;76.93
17936;BME280;9093;52.062;4.508;2022-12-18T14:07:22;102552.28;;;0.23;77.10
17936;BME280;9093;52.062;4.508;2022-12-18T14:10:04;102554.06;;;0.24;76.80
17936;BME280;9093;52.062;4.508;2022-12-18T14:12:47;102550.53;;;0.25;77.23
17936;BME280;9093;52.062;4.508;2022-12-18T14:15:43;102545.28;;;0.24;76.86
17936;BME280;9093;52.062;4.508;2022-12-18T14:18:44;102549.69;;;0.25;77.21
17936;BME280;9093;52.062;4.508;2022-12-18T14:21:27;102542.66;;;0.24;76.87
17936;BME280;9093;52.062;4.508;2022-12-18T14:26:49;102537.34;;;0.21;77.16
17936;BME280;9093;52.062;4.508;2022-12-18T14:29:30;102535.56;;;0.20;77.15
17936;BME280;9093;52.062;4.508;2022-12-18T14:34:53;102537.34;;;0.21;77.02
17936;BME280;9093;52.062;4.508;2022-12-18T14:37:34;102516.28;;;0.19;77.02
17936;BME280;9093;52.062;4.508;2022-12-18T14:40:14;102511.94;;;0.18;77.14
17936;BME280;9093;52.062;4.508;2022-12-18T14:42:54;102504.03;;;0.20;77.08
17936;BME280;9093;52.062;4.508;2022-12-18T14:45:40;102498.78;;;0.20;76.98
17936;BME280;9093;52.062;4.508;2022-12-18T14:48:39;102494.44;;;0.19;76.78
17936;BME280;9093;52.062;4.508;2022-12-18T14:51:25;102494.44;;;0.19;76.79
17936;BME280;9093;52.062;4.508;2022-12-18T14:54:17;102483.88;;;0.17;76.84
17936;BME280;9093;52.062;4.508;2022-12-18T14:57:05;102486.53;;;0.19;77.02
17936;BME280;9093;52.062;4.508;2022-12-18T14:59:46;102488.28;;;0.18;77.11
17936;BME280;9093;52.062;4.508;2022-12-18T15:02:27;102493.53;;;0.20;77.05
17936;BME280;9093;52.062;4.508;2022-12-18T15:05:24;102498.75;;;0.17;77.04
17936;BME280;9093;52.062;4.508;2022-12-18T15:08:28;102489.09;;;0.14;76.80
17936;BME280;9093;52.062;4.508;2022-12-18T15:17:06;102485.56;;;0.14;76.87
17936;BME280;9093;52.062;4.508;2022-12-18T15:20:03;102498.69;;;0.14;76.94
17936;BME280;9093;52.062;4.508;2022-12-18T15:22:48;102483.78;;;0.13;76.80
17936;BME280;9093;52.062;4.508;2022-12-18T15:25:34;102480.31;;;0.12;77.21
17936;BME280;9093;52.062;4.508;2022-12-18T15:28:23;102473.28;;;0.13;76.98
17936;BME280;9093;52.062;4.508;2022-12-18T15:36:34;102479.47;;;0.15;77.07
17936;BME280;9093;52.062;4.508;2022-12-18T15:39:18;102472.44;;;0.14;77.04
17936;BME280;9093;52.062;4.508;2022-12-18T15:41:58;102467.25;;;0.17;77.20
17936;BME280;9093;52.062;4.508;2022-12-18T15:44:59;102472.50;;;0.17;76.91
17936;BME280;9093;52.062;4.508;2022-12-18T15:47:40;102459.41;;;0.18;76.89
17936;BME280;9093;52.062;4.508;2022-12-18T15:50:21;102456.75;;;0.20;76.88
17936;BME280;9093;52.062;4.508;2022-12-18T15:53:02;102455.88;;;0.19;76.84
17936;BME280;9093;52.062;4.508;2022-12-18T15:55:42;102447.13;;;0.20;76.77
17936;BME280;9093;52.062;4.508;2022-12-18T15:58:41;102442.81;;;0.22;76.94
17936;BME280;9093;52.062;4.508;2022-12-18T16:01:31;102439.28;;;0.22;77.10
17936;BME280;9093;52.062;4.508;2022-12-18T16:04:12;102440.19;;;0.22;76.91
17936;BME280;9093;52.062;4.508;2022-12-18T16:06:53;102436.66;;;0.22;77.07
17936;BME280;9093;52.062;4.508;2022-12-18T16:09:33;102427.94;;;0.23;77.18
17936;BME280;9093;52.062;4.508;2022-12-18T16:12:19;102436.69;;;0.23;77.04
17936;BME280;9093;52.062;4.508;2022-12-18T16:15:01;102435.84;;;0.26;76.90
17936;BME280;9093;52.062;4.508;2022-12-18T16:17:46;102428.84;;;0.25;76.62
17936;BME280;9093;52.062;4.508;2022-12-18T16:20:26;102425.31;;;0.26;76.93